Time;durP1;ratioP1;P1;durP2;ratioP2;P2;SDS_P1;SDS_P2;PMS_P1;PMS_P2;Temp;Humidity;BMP_temperature;BMP_pressure;BME280_temperature;BME280_humidity;BME280_pressure;Samples;Min_cycle;Max_cycle;Signal;HPM_P1;HPM_P2
2022/08/23 00:01:21;;;;;;;16.17;10.70;;;;;;;16.37;88.96;101293.03;5060053;28;20454;-68
2022/08/23 00:03:47;;;;;;;16.80;10.35;;;;;;;16.35;88.92;101287.78;5061830;28;20086;-69
2022/08/23 00:06:13;;;;;;;17.52;10.13;;;;;;;16.34;89.35;101289.72;5053653;28;20415;-69
2022/08/23 00:08:39;;;;;;;20.23;11.25;;;;;;;16.33;89.05;101289.97;5020934;28;20048;-69
2022/08/23 00:11:05;;;;;;;17.83;11.77;;;;;;;16.33;89.05;101288.03;5020787;28;20029;-69
2022/08/23 00:13:32;;;;;;;16.13;11.00;;;;;;;16.34;89.84;101284.16;5021809;28;20036;-69
2022/08/23 00:15:59;;;;;;;17.83;11.40;;;;;;;16.36;89.57;101286.66;5020710;28;20022;-69
2022/08/23 00:18:25;;;;;;;16.92;10.68;;;;;;;16.26;89.49;101278.22;5020582;28;20030;-69
2022/08/23 00:20:50;;;;;;;15.27;10.68;;;;;;;16.21;89.50;101273.44;5021139;28;20021;-69
2022/08/23 00:23:16;;;;;;;18.92;10.93;;;;;;;16.16;89.86;101278.09;5020817;28;20433;-69
2022/08/23 00:25:41;;;;;;;25.08;11.73;;;;;;;16.08;90.40;101277.47;5042241;28;20032;-69
2022/08/23 00:28:08;;;;;;;20.35;11.45;;;;;;;16.11;90.28;101283.56;5060588;28;20028;-69
2022/08/23 00:30:34;;;;;;;17.23;11.05;;;;;;;16.08;91.09;101280.22;5061269;28;20028;-69
2022/08/23 00:32:59;;;;;;;22.33;12.25;;;;;;;16.04;90.91;101276.28;5063047;28;20086;-69
2022/08/23 00:35:25;;;;;;;18.98;12.48;;;;;;;16.07;91.07;101277.72;5064812;28;20090;-68
2022/08/23 00:37:50;;;;;;;17.27;11.65;;;;;;;16.01;91.10;101268.47;5065028;28;20028;-68
2022/08/23 00:40:17;;;;;;;20.95;12.35;;;;;;;15.98;90.99;101293.94;5064708;28;20029;-69
2022/08/23 00:48:56;;;;;;;18.02;12.02;;;;;;;15.99;91.32;101279.00;5040423;28;20051;-70
2022/08/23 00:51:30;;;;;;;19.25;11.15;;;;;;;15.95;90.93;101279.75;5064973;28;20084;-69
2022/08/23 00:54:02;;;;;;;16.50;12.10;;;;;;;15.86;91.21;101279.34;5064633;28;20027;-69
2022/08/23 00:56:32;;;;;;;18.15;11.90;;;;;;;15.83;91.75;101286.25;5064566;28;20043;-69
2022/08/23 00:58:58;;;;;;;18.30;11.60;;;;;;;15.79;91.74;101282.31;5064564;28;20083;-68
2022/08/23 01:01:24;;;;;;;17.55;11.52;;;;;;;15.76;92.03;101284.75;5055720;28;20107;-69
2022/08/23 01:03:53;;;;;;;18.40;12.32;;;;;;;15.78;92.46;101286.19;5065125;28;20020;-69
2022/08/23 01:06:31;;;;;;;18.75;12.57;;;;;;;15.81;92.19;101287.59;5064715;28;20466;-69
2022/08/23 01:09:01;;;;;;;19.23;12.98;;;;;;;15.79;92.94;101289.78;5063930;28;20483;-69
2022/08/23 01:11:35;;;;;;;20.63;12.82;;;;;;;15.81;92.60;101293.13;5063975;28;20523;-69
2022/08/23 01:14:25;;;;;;;20.55;14.05;;;;;;;15.83;92.80;101293.72;5066513;22;20466;-69
2022/08/23 01:17:00;;;;;;;20.52;13.45;;;;;;;15.83;93.05;101285.41;5045323;28;20432;-66
2022/08/23 01:19:38;;;;;;;20.05;13.60;;;;;;;15.79;92.35;101287.84;5045861;28;20025;-69
2022/08/23 01:22:19;;;;;;;20.67;14.18;;;;;;;15.73;92.78;101282.50;5045239;28;20064;-70
2022/08/23 01:24:45;;;;;;;21.20;14.40;;;;;;;15.67;92.65;101289.91;5045439;28;20098;-69
2022/08/23 01:27:11;;;;;;;22.55;15.38;;;;;;;15.69;93.04;101289.63;5045693;28;20025;-69
2022/08/23 01:29:39;;;;;;;25.00;14.93;;;;;;;15.65;92.66;101286.53;5026643;28;20032;-70
2022/08/23 01:32:05;;;;;;;22.45;15.25;;;;;;;15.66;92.96;101287.38;5062925;28;20032;-70
2022/08/23 01:34:30;;;;;;;20.00;15.13;;;;;;;15.66;92.95;101281.81;5064924;28;20024;-70
2022/08/23 01:36:57;;;;;;;22.27;14.23;;;;;;;15.67;92.73;101283.53;5065149;28;20070;-69
2022/08/23 01:39:22;;;;;;;18.50;14.25;;;;;;;15.70;93.07;101283.00;5064702;28;20020;-69
2022/08/23 01:41:48;;;;;;;21.67;12.98;;;;;;;15.69;93.18;101275.78;5065235;28;20035;-69
2022/08/23 01:44:13;;;;;;;26.48;14.85;;;;;;;15.67;93.85;101283.53;5063660;28;20028;-69
2022/08/23 01:46:42;;;;;;;20.77;14.02;;;;;;;15.67;94.24;101286.28;5063738;28;20430;-69
2022/08/23 01:49:07;;;;;;;20.65;13.45;;;;;;;15.65;94.39;101280.16;5025072;28;20041;-69
2022/08/23 01:51:33;;;;;;;20.45;14.63;;;;;;;15.64;93.58;101289.56;5023650;28;20029;-69
2022/08/23 01:53:58;;;;;;;22.73;14.43;;;;;;;15.57;93.64;101275.88;5023953;28;20036;-69
2022/08/23 01:56:23;;;;;;;23.05;15.57;;;;;;;15.57;94.46;101284.19;5024125;28;20777;-69
2022/08/23 01:58:49;;;;;;;21.88;14.50;;;;;;;15.55;94.03;101278.88;5024236;28;20037;-69
2022/08/23 02:01:16;;;;;;;22.02;15.63;;;;;;;15.54;94.31;101279.97;5022596;28;20076;-69
2022/08/23 02:03:42;;;;;;;20.48;14.65;;;;;;;15.52;94.43;101282.16;5027305;28;20072;-69
2022/08/23 02:06:07;;;;;;;21.13;14.27;;;;;;;15.51;94.16;101282.41;5024350;28;20024;-69
2022/08/23 02:11:20;;;;;;;23.40;14.68;;;;;;;15.49;94.62;101288.19;5024600;28;20093;-69
2022/08/23 02:13:47;;;;;;;20.52;14.95;;;;;;;15.50;94.94;101284.31;5023664;28;20045;-69
2022/08/23 02:16:19;;;;;;;20.75;13.82;;;;;;;15.49;95.17;101293.72;5022735;28;20039;-69
2022/08/23 02:18:44;;;;;;;18.95;13.70;;;;;;;15.54;94.71;101291.03;5023809;28;20037;-69
2022/08/23 02:21:10;;;;;;;21.92;15.40;;;;;;;15.61;94.10;101290.03;5023262;28;20033;-69
2022/08/23 02:23:35;;;;;;;22.80;15.90;;;;;;;15.70;93.74;101288.53;5060463;28;20032;-69
2022/08/23 02:26:00;;;;;;;26.67;17.80;;;;;;;15.80;93.36;101294.22;5063114;28;20757;-70
2022/08/23 02:28:25;;;;;;;30.20;20.13;;;;;;;15.85;93.36;101291.53;5062993;28;20228;-69
2022/08/23 02:30:52;;;;;;;30.27;21.83;;;;;;;15.90;92.36;101283.28;5062078;28;20035;-70
2022/08/23 02:33:18;;;;;;;30.20;19.45;;;;;;;15.96;92.22;101293.34;5063734;28;20023;-68
2022/08/23 02:35:43;;;;;;;24.55;18.42;;;;;;;15.98;91.92;101290.34;5062962;28;20028;-69
2022/08/23 02:38:11;;;;;;;26.02;18.60;;;;;;;16.00;92.04;101293.69;5062525;28;20383;-69
2022/08/23 02:40:38;;;;;;;25.88;18.02;;;;;;;16.06;91.72;101298.19;5058516;28;20031;-70
2022/08/23 02:43:05;;;;;;;26.30;18.50;;;;;;;16.05;91.76;101293.75;5063011;28;20025;-69
2022/08/23 02:45:31;;;;;;;28.63;19.77;;;;;;;16.07;91.85;101299.91;5062392;28;20020;-69
2022/08/23 02:47:57;;;;;;;26.90;19.33;;;;;;;16.06;91.54;101299.03;5062499;28;20029;-70
2022/08/23 02:50:23;;;;;;;25.05;19.92;;;;;;;16.06;91.75;101303.72;5062700;28;20073;-69
2022/08/23 02:52:48;;;;;;;23.23;15.88;;;;;;;15.97;91.30;101297.81;5063086;28;20028;-69
2022/08/23 02:55:15;;;;;;;24.45;15.88;;;;;;;15.81;91.65;101301.44;5061840;28;20166;-69
2022/08/23 02:57:40;;;;;;;24.92;16.88;;;;;;;15.66;93.10;101303.97;5054637;28;20035;-69
2022/08/23 03:00:09;;;;;;;22.70;16.90;;;;;;;15.61;93.64;101309.41;5062804;28;20487;-69
2022/08/23 03:02:35;;;;;;;20.98;15.32;;;;;;;15.55;93.58;101314.84;5061019;28;20591;-69
2022/08/23 03:05:00;;;;;;;30.98;18.10;;;;;;;15.54;93.88;101309.59;5062916;28;20378;-69
2022/08/23 03:07:26;;;;;;;22.75;17.38;;;;;;;15.55;94.32;101314.03;5062277;28;20024;-69
2022/08/23 03:09:51;;;;;;;24.83;18.30;;;;;;;15.55;94.33;101320.41;5061834;28;20115;-69
2022/08/23 03:12:17;;;;;;;25.10;17.52;;;;;;;15.55;94.17;101314.03;5062865;28;20033;-68
2022/08/23 03:14:42;;;;;;;23.65;17.38;;;;;;;15.53;94.42;101322.59;5058104;28;20516;-69
2022/08/23 03:17:08;;;;;;;25.92;17.52;;;;;;;15.53;94.49;101328.13;5060960;28;20036;-69
2022/08/23 03:19:33;;;;;;;21.83;17.08;;;;;;;15.53;95.33;101322.59;5061971;28;20025;-69
2022/08/23 03:21:59;;;;;;;26.55;18.35;;;;;;;15.53;94.72;101321.75;5061932;28;20024;-70
2022/08/23 03:24:24;;;;;;;29.98;19.88;;;;;;;15.51;94.70;101327.56;5061847;28;20031;-69
2022/08/23 03:26:50;;;;;;;25.52;19.00;;;;;;;15.52;95.33;101331.16;5061910;28;20017;-69
2022/08/23 03:29:15;;;;;;;20.83;17.65;;;;;;;15.53;96.22;101327.28;5062560;28;20035;-69
2022/08/23 03:31:41;;;;;;;25.70;18.38;;;;;;;15.58;95.20;101327.38;5060937;28;20205;-69
2022/08/23 03:34:06;;;;;;;22.75;17.65;;;;;;;15.60;95.49;101329.88;5057463;28;20115;-70
2022/08/23 03:36:32;;;;;;;23.33;18.13;;;;;;;15.63;95.13;101332.16;5061884;28;20047;-69
2022/08/23 03:38:59;;;;;;;27.35;19.60;;;;;;;15.63;94.95;101332.16;5061413;28;20103;-69
2022/08/23 03:41:24;;;;;;;27.08;19.58;;;;;;;15.61;94.72;101339.88;5061308;28;20103;-69
2022/08/23 03:43:50;;;;;;;28.20;18.42;;;;;;;15.53;95.61;101333.66;5061648;28;20111;-69
2022/08/23 03:46:24;;;;;;;29.17;19.08;;;;;;;15.55;96.15;101341.72;5061254;28;20048;-69
2022/08/23 03:48:50;;;;;;;28.60;19.15;;;;;;;15.55;96.33;101339.78;5061968;28;20020;-69
2022/08/23 03:51:17;;;;;;;25.80;19.95;;;;;;;15.55;96.81;101336.19;5049463;28;20409;-69
2022/08/23 03:53:42;;;;;;;30.60;21.35;;;;;;;15.57;96.51;101332.06;5062620;28;20090;-69
2022/08/23 03:56:07;;;;;;;27.75;19.00;;;;;;;15.61;97.27;101331.56;5061895;28;20013;-70
2022/08/23 03:58:33;;;;;;;25.90;19.52;;;;;;;15.57;96.45;101329.31;5044458;28;20395;-69
2022/08/23 04:00:58;;;;;;;29.13;19.13;;;;;;;15.56;96.92;101335.94;5061855;28;20371;-70
2022/08/23 04:03:24;;;;;;;28.35;20.95;;;;;;;15.63;97.85;101332.16;5062341;28;20024;-70
2022/08/23 04:05:49;;;;;;;28.73;21.35;;;;;;;15.54;96.98;101331.72;5062014;28;20441;-70
2022/08/23 04:08:15;;;;;;;30.70;21.70;;;;;;;15.55;97.18;101330.63;5057992;28;20020;-69
2022/08/23 04:10:40;;;;;;;32.58;21.73;;;;;;;15.57;97.37;101334.84;5060848;28;20032;-69
2022/08/23 04:13:07;;;;;;;31.27;22.25;;;;;;;15.53;97.98;101328.13;5060975;28;20044;-69
2022/08/23 04:15:33;;;;;;;29.17;22.57;;;;;;;15.52;97.97;101332.00;5060369;28;20411;-69
2022/08/23 04:17:59;;;;;;;30.35;22.52;;;;;;;15.46;98.07;101338.53;5061454;28;20016;-69
2022/08/23 04:20:24;;;;;;;28.48;22.35;;;;;;;15.44;98.43;101348.19;5061113;28;20371;-69
2022/08/23 04:22:52;;;;;;;31.42;22.73;;;;;;;15.44;98.77;101349.00;5061576;28;20074;-69
2022/08/23 04:25:18;;;;;;;34.47;23.60;;;;;;;15.50;99.33;101345.22;5049449;28;20072;-69
2022/08/23 04:27:43;;;;;;;36.25;24.17;;;;;;;15.48;98.89;101336.34;5021246;28;20369;-69
2022/08/23 04:30:09;;;;;;;38.85;26.92;;;;;;;15.51;98.85;101348.84;5021421;28;20051;-69
2022/08/23 04:32:34;;;;;;;33.67;24.92;;;;;;;15.49;99.24;101343.56;5019994;28;20306;-69
2022/08/23 04:34:59;;;;;;;39.33;25.63;;;;;;;15.48;98.94;101346.59;5021337;28;20127;-69
2022/08/23 04:37:25;;;;;;;33.03;24.13;;;;;;;15.48;98.93;101347.44;5020877;28;20670;-69
2022/08/23 04:42:34;;;;;;;37.25;24.15;;;;;;;15.57;98.81;101350.63;5050740;28;20128;-69
2022/08/23 04:45:00;;;;;;;36.22;22.52;;;;;;;15.60;99.40;101343.72;5060386;28;20111;-69
2022/08/23 04:47:25;;;;;;;37.65;22.98;;;;;;;15.58;99.13;101346.75;5060658;28;20028;-69
2022/08/23 04:49:51;;;;;;;36.33;23.23;;;;;;;15.61;99.24;101351.78;5060636;28;20082;-69
2022/08/23 04:52:16;;;;;;;34.53;21.77;;;;;;;15.65;99.74;101357.69;5060766;28;20020;-69
2022/08/23 04:54:41;;;;;;;33.75;23.55;;;;;;;15.65;98.93;101354.91;5061501;28;20032;-69
2022/08/23 04:57:06;;;;;;;36.30;22.77;;;;;;;15.69;98.91;101356.09;5047565;28;20170;-69
2022/08/23 04:59:32;;;;;;;36.53;22.20;;;;;;;15.77;99.22;101364.00;5021231;28;20380;-70
2022/08/23 05:01:57;;;;;;;34.63;23.30;;;;;;;15.82;99.21;101366.84;5020243;28;20544;-69
2022/08/23 05:04:22;;;;;;;35.25;23.45;;;;;;;15.90;98.84;101371.94;5020773;28;20416;-69
2022/08/23 05:06:47;;;;;;;32.03;22.67;;;;;;;15.93;98.85;101363.13;5021425;28;20033;-69
2022/08/23 05:09:13;;;;;;;35.90;23.20;;;;;;;15.92;98.31;101358.69;5020498;28;20795;-70
2022/08/23 05:11:39;;;;;;;32.90;22.75;;;;;;;15.94;98.76;101362.03;5021005;28;20032;-69
2022/08/23 05:14:04;;;;;;;35.95;23.83;;;;;;;16.01;98.97;101368.22;5025029;28;20045;-69
2022/08/23 05:16:29;;;;;;;40.88;24.95;;;;;;;16.05;99.26;101363.03;5059409;28;20108;-69
2022/08/23 05:18:55;;;;;;;40.83;24.88;;;;;;;16.12;99.32;101360.94;5063574;28;20684;-70
2022/08/23 05:21:22;;;;;;;39.78;24.42;;;;;;;16.15;98.59;101362.34;5064143;28;20024;-68
2022/08/23 05:23:48;;;;;;;35.30;23.95;;;;;;;16.18;98.93;101359.06;5064362;28;20029;-69
2022/08/23 05:26:14;;;;;;;34.78;25.98;;;;;;;16.15;99.13;101363.16;5064056;28;20104;-69
2022/08/23 05:28:42;;;;;;;42.22;26.20;;;;;;;16.14;99.57;101363.44;5064149;28;20035;-69
2022/08/23 05:31:12;;;;;;;39.97;25.85;;;;;;;16.12;98.78;101360.06;5059278;28;20037;-69
2022/08/23 05:33:40;;;;;;;41.47;26.48;;;;;;;16.09;98.24;101369.75;5028962;28;20032;-70
2022/08/23 05:36:06;;;;;;;50.45;29.23;;;;;;;16.09;98.31;101369.75;5024911;28;20045;-69
2022/08/23 05:38:31;;;;;;;49.78;29.90;;;;;;;16.07;98.20;101377.47;5025089;28;20387;-70
2022/08/23 05:40:57;;;;;;;48.70;30.17;;;;;;;16.06;97.60;101375.78;5025073;28;20036;-69
2022/08/23 05:43:24;;;;;;;52.20;32.08;;;;;;;16.11;98.15;101386.94;5025335;28;20080;-69
2022/08/23 05:46:09;;;;;;;49.40;31.40;;;;;;;16.20;97.90;101392.88;5024429;28;20024;-70
2022/08/23 05:48:36;;;;;;;48.65;28.67;;;;;;;16.26;97.74;101402.94;5024136;28;20064;-69
2022/08/23 05:51:15;;;;;;;47.85;27.80;;;;;;;16.40;99.05;101408.97;5023572;28;20052;-70
2022/08/23 05:53:42;;;;;;;44.00;28.15;;;;;;;16.51;99.06;101411.63;5023738;28;20035;-69
2022/08/23 05:56:20;;;;;;;41.42;27.23;;;;;;;16.61;97.96;101403.44;5024095;28;20083;-70
2022/08/23 05:58:47;;;;;;;44.33;28.88;;;;;;;16.71;98.82;101411.09;5024790;28;20104;-69
2022/08/23 06:01:14;;;;;;;50.42;31.02;;;;;;;16.82;99.57;101412.06;5022933;28;20152;-69
2022/08/23 06:03:40;;;;;;;46.55;29.80;;;;;;;16.91;98.57;101413.28;5023827;28;20093;-69
2022/08/23 06:06:05;;;;;;;46.03;28.35;;;;;;;17.01;98.14;101416.19;5031453;28;20097;-70
2022/08/23 06:08:31;;;;;;;52.40;30.60;;;;;;;17.07;97.26;101411.50;5063812;28;20498;-70
2022/08/23 06:11:05;;;;;;;46.40;29.63;;;;;;;17.20;98.38;101411.13;5063401;28;20036;-69
2022/08/23 06:13:32;;;;;;;49.35;30.58;;;;;;;17.31;99.13;101414.84;5063290;28;20040;-69
2022/08/23 06:15:58;;;;;;;47.83;30.48;;;;;;;17.41;97.13;101414.94;5062622;28;20379;-69
2022/08/23 06:18:24;;;;;;;44.58;28.52;;;;;;;17.48;96.15;101412.78;5063552;28;20019;-69
2022/08/23 06:21:04;;;;;;;46.05;31.38;;;;;;;17.62;95.05;101415.97;5061211;28;20063;-69
2022/08/23 06:23:31;;;;;;;45.45;28.45;;;;;;;17.70;95.73;101415.50;5023430;28;20036;-69
2022/08/23 06:25:56;;;;;;;37.30;26.67;;;;;;;17.74;95.41;101418.59;5022775;28;20025;-69
2022/08/23 06:28:22;;;;;;;34.88;26.42;;;;;;;17.78;96.65;101419.75;5023232;28;20026;-69
2022/08/23 06:30:47;;;;;;;40.88;28.13;;;;;;;17.84;96.32;101421.47;5022314;28;20017;-69
2022/08/23 06:33:12;;;;;;;32.35;25.52;;;;;;;17.86;96.09;101419.28;5022333;28;20052;-69
2022/08/23 06:35:38;;;;;;;34.00;25.35;;;;;;;17.81;94.45;101416.44;5023224;28;20072;-69
2022/08/23 06:38:04;;;;;;;30.50;25.00;;;;;;;17.83;94.48;101417.00;5022784;28;20077;-69
2022/08/23 06:40:29;;;;;;;31.67;24.05;;;;;;;17.86;94.77;101419.28;5022213;28;20574;-69
2022/08/23 06:42:54;;;;;;;28.25;23.00;;;;;;;17.92;95.47;101420.16;5022808;28;20029;-70
2022/08/23 06:45:21;;;;;;;25.85;22.92;;;;;;;17.91;95.65;101427.66;5022246;28;20099;-69
2022/08/23 06:47:47;;;;;;;25.42;22.50;;;;;;;17.93;95.32;101419.88;5023989;28;20029;-69
2022/08/23 06:50:12;;;;;;;29.88;26.58;;;;;;;18.00;90.64;101428.84;5022324;28;20483;-69
2022/08/23 06:52:37;;;;;;;28.43;25.40;;;;;;;18.05;88.77;101426.09;5022949;28;20041;-69
2022/08/23 06:55:03;;;;;;;32.05;25.33;;;;;;;18.12;88.33;101423.91;5023144;28;20280;-69
2022/08/23 06:57:28;;;;;;;29.35;25.92;;;;;;;18.14;88.87;101426.41;5021957;28;20026;-69
2022/08/23 06:59:53;;;;;;;35.28;26.13;;;;;;;18.24;87.41;101423.72;5022543;28;20041;-70
2022/08/23 07:02:19;;;;;;;29.55;25.67;;;;;;;18.32;86.40;101427.94;5022299;28;20108;-68
2022/08/23 07:04:44;;;;;;;30.57;26.27;;;;;;;18.67;85.47;101421.75;5022907;28;20028;-70
2022/08/23 07:07:10;;;;;;;30.63;25.20;;;;;;;19.91;78.32;101416.22;5020940;28;20997;-69
2022/08/23 07:09:36;;;;;;;36.92;24.80;;;;;;;20.99;72.28;101412.06;5022631;28;20036;-69
2022/08/23 07:12:02;;;;;;;30.17;22.65;;;;;;;21.58;67.51;101416.75;5022422;28;20022;-70
2022/08/23 07:14:27;;;;;;;29.25;23.60;;;;;;;22.05;68.47;101411.59;5021759;28;20553;-70
2022/08/23 07:16:55;;;;;;;27.10;21.85;;;;;;;22.36;65.40;101415.00;5061446;28;20036;-69
2022/08/23 07:19:23;;;;;;;26.10;22.67;;;;;;;22.73;67.07;101417.06;5062059;28;20021;-70
2022/08/23 07:21:49;;;;;;;;;;;;;;;23.01;71.71;101421.78;5062760;28;20081;-69
2022/08/23 07:24:17;;;;;;;27.27;21.95;;;;;;;22.21;67.73;101422.41;5061810;28;19913;-69
2022/08/23 07:26:44;;;;;;;25.45;20.58;;;;;;;21.74;64.21;101429.47;5062079;28;20474;-70
2022/08/23 07:29:12;;;;;;;25.00;21.55;;;;;;;21.37;69.61;101429.19;5061463;28;20039;-70
2022/08/23 07:31:41;;;;;;;23.50;20.23;;;;;;;21.14;70.14;101431.53;5061331;28;20024;-70
2022/08/23 07:34:07;;;;;;;29.77;20.75;;;;;;;21.06;67.39;101428.50;5049779;28;20460;-69
2022/08/23 07:36:34;;;;;;;25.10;22.27;;;;;;;20.90;68.56;101425.78;5061806;28;20024;-69
2022/08/23 07:39:00;;;;;;;26.20;21.88;;;;;;;20.82;69.25;101434.75;5061199;28;20020;-69
2022/08/23 07:41:30;;;;;;;25.50;22.75;;;;;;;20.77;70.38;101434.78;5062014;28;20028;-69
2022/08/23 07:43:57;;;;;;;26.42;20.35;;;;;;;20.77;68.68;101437.56;5061190;28;20020;-69
2022/08/23 07:46:24;;;;;;;24.00;20.70;;;;;;;20.77;68.45;101431.16;5061007;28;20021;-69
2022/08/23 07:48:50;;;;;;;23.70;20.63;;;;;;;20.78;68.51;101435.59;5060243;28;20321;-69
2022/08/23 07:51:16;;;;;;;25.55;21.98;;;;;;;20.77;69.68;101448.72;5021606;28;20315;-70
2022/08/23 07:53:42;;;;;;;28.27;22.77;;;;;;;20.87;71.40;101447.84;5021584;28;20061;-69
2022/08/23 07:56:09;;;;;;;25.85;22.05;;;;;;;21.10;68.25;101457.53;5021736;28;20113;-70
2022/08/23 07:58:34;;;;;;;23.55;21.05;;;;;;;21.13;67.80;101452.19;5003787;28;20399;-70
2022/08/23 08:01:26;;;;;;;26.00;21.02;;;;;;;21.20;68.58;101449.13;5020204;28;20033;-69
2022/08/23 08:03:54;;;;;;;29.17;22.65;;;;;;;21.25;67.81;101454.69;5020833;28;20031;-70
2022/08/23 08:06:24;;;;;;;30.63;24.30;;;;;;;21.31;67.31;101455.50;5032255;28;20017;-69
2022/08/23 08:08:49;;;;;;;25.80;22.90;;;;;;;21.38;67.52;101458.81;5061878;28;20028;-69
2022/08/23 08:11:18;;;;;;;29.10;23.05;;;;;;;21.41;67.83;101453.50;5060985;28;20078;-70
2022/08/23 08:13:46;;;;;;;25.58;22.17;;;;;;;21.48;67.61;101450.38;5061313;28;20033;-69
2022/08/23 08:16:21;;;;;;;;;;;;;;;21.61;69.42;101457.28;5060696;28;20094;-69
2022/08/23 08:18:46;;;;;;;27.88;24.02;;;;;;;21.70;67.93;101463.94;5061373;28;19919;-69
2022/08/23 08:21:13;;;;;;;27.05;23.67;;;;;;;21.88;65.69;101467.97;5060871;28;20021;-69
2022/08/23 08:23:38;;;;;;;27.90;24.23;;;;;;;22.01;66.05;101461.72;5058272;28;20032;-69
2022/08/23 08:26:06;;;;;;;30.80;23.70;;;;;;;22.28;66.00;101461.22;5060417;28;20024;-70
2022/08/23 08:28:32;;;;;;;23.50;20.85;;;;;;;22.44;66.55;101456.31;5061638;28;20052;-69
2022/08/23 08:30:58;;;;;;;23.95;20.20;;;;;;;22.51;63.10;101457.66;5059941;28;20024;-69
2022/08/23 08:33:24;;;;;;;24.70;19.85;;;;;;;22.50;63.59;101463.50;5060724;28;20055;-68
2022/08/23 08:35:50;;;;;;;21.27;18.83;;;;;;;22.60;63.61;101466.22;5061513;28;20024;-69
2022/08/23 08:38:16;;;;;;;26.13;19.90;;;;;;;22.76;61.65;101462.13;5059993;28;20013;-69
2022/08/23 08:40:42;;;;;;;25.55;20.35;;;;;;;22.75;62.11;101460.44;5046059;28;20045;-69
2022/08/23 08:43:34;;;;;;;23.77;19.95;;;;;;;22.83;63.85;101472.13;5020807;28;20373;-69
2022/08/23 08:46:12;;;;;;;29.40;21.65;;;;;;;22.93;62.48;101466.44;5019468;28;20112;-69
2022/08/23 08:48:47;;;;;;;28.30;21.40;;;;;;;23.09;63.52;101479.13;5021048;28;20360;-69
2022/08/23 08:51:33;;;;;;;25.85;20.48;;;;;;;23.17;65.37;101470.06;5002924;28;20519;-69
2022/08/23 08:54:01;;;;;;;28.48;21.42;;;;;;;23.27;60.74;101466.28;5022955;28;20488;-69
2022/08/23 08:56:32;;;;;;;28.10;21.27;;;;;;;23.31;64.50;101473.75;5025027;28;20329;-69
2022/08/23 08:59:02;;;;;;;24.42;19.95;;;;;;;23.59;65.12;101475.91;5025412;28;20026;-69
2022/08/23 09:01:31;;;;;;;26.67;20.38;;;;;;;23.83;58.83;101468.28;5064103;28;20502;-69
2022/08/23 09:03:57;;;;;;;25.67;18.98;;;;;;;24.40;58.10;101477.44;5063747;28;20071;-68
2022/08/23 09:06:33;;;;;;;27.77;19.95;;;;;;;24.84;56.69;101478.84;5064993;28;20013;-69
2022/08/23 09:09:17;;;;;;;26.63;19.45;;;;;;;25.56;56.05;101481.81;5064985;28;20070;-69
2022/08/23 09:12:07;;;;;;;26.75;19.13;;;;;;;26.34;52.49;101487.25;5064636;28;20410;-69
2022/08/23 09:14:46;;;;;;;25.27;18.67;;;;;;;27.59;52.30;101493.56;5062998;28;20048;-69
2022/08/23 09:17:22;;;;;;;26.17;18.40;;;;;;;29.04;47.54;101478.72;5060952;28;20109;-69
2022/08/23 09:19:50;;;;;;;23.30;17.20;;;;;;;30.04;43.42;101494.00;5064278;28;20100;-69
2022/08/23 09:22:33;;;;;;;25.60;17.52;;;;;;;31.21;40.67;101493.69;5065015;28;20021;-69
2022/08/23 09:24:59;;;;;;;25.33;15.80;;;;;;;31.70;39.12;101494.47;5063365;28;20526;-69
2022/08/23 09:27:24;;;;;;;20.00;14.88;;;;;;;32.63;36.36;101494.34;5064735;28;20024;-68
2022/08/23 09:29:54;;;;;;;19.67;12.40;;;;;;;33.94;34.69;101492.25;5045905;28;20063;-67
2022/08/23 09:32:36;;;;;;;19.13;11.43;;;;;;;34.75;34.17;101489.38;5060596;28;20060;-65
2022/08/23 09:35:14;;;;;;;18.52;11.90;;;;;;;35.29;34.53;101489.06;5063926;28;20053;-65
2022/08/23 09:37:54;;;;;;;20.70;11.18;;;;;;;35.78;33.81;101490.19;5063482;28;20028;-66
2022/08/23 09:40:27;;;;;;;16.30;10.05;;;;;;;36.22;32.62;101492.41;5064635;28;20025;-66
2022/08/23 09:43:26;;;;;;;15.13;7.50;;;;;;;36.78;33.29;101491.38;5063181;28;20115;-66
2022/08/23 09:45:51;;;;;;;14.90;6.65;;;;;;;36.49;29.48;101493.94;5029746;28;20040;-67
2022/08/23 09:48:40;;;;;;;12.55;7.38;;;;;;;36.96;31.53;101494.44;5063974;28;20104;-66
2022/08/23 09:51:10;;;;;;;15.55;7.60;;;;;;;36.85;29.87;101482.81;5055495;28;20017;-66
2022/08/23 09:53:35;;;;;;;16.40;7.85;;;;;;;36.89;29.21;101481.66;5023243;28;20037;-66
2022/08/23 09:56:14;;;;;;;17.67;9.23;;;;;;;37.42;29.66;101477.59;5024143;28;20017;-66
2022/08/23 09:58:45;;;;;;;15.63;7.82;;;;;;;37.17;28.28;101480.25;5023790;28;20384;-66
2022/08/23 10:01:24;;;;;;;14.55;7.07;;;;;;;37.28;29.02;101469.69;5023351;28;20044;-66
2022/08/23 10:04:11;;;;;;;16.98;7.43;;;;;;;37.64;30.11;101470.75;5023710;28;20031;-66
2022/08/23 10:06:37;;;;;;;;;;;;;;;38.86;31.31;101471.94;5024383;28;20034;-67
2022/08/23 10:09:04;;;;;;;12.82;6.25;;;;;;;37.92;26.64;101469.28;5023162;28;19975;-68
2022/08/23 10:11:37;;;;;;;14.82;6.53;;;;;;;38.28;26.38;101470.19;5023603;28;20087;-68
2022/08/23 10:14:02;;;;;;;13.63;5.90;;;;;;;38.64;25.05;101468.22;5022978;28;20072;-68
2022/08/23 10:16:32;;;;;;;10.82;4.97;;;;;;;38.50;25.88;101476.00;5023026;28;20057;-68
2022/08/23 10:19:35;;;;;;;12.93;4.28;;;;;;;38.91;25.88;101476.44;5022638;28;20021;-68
2022/08/23 10:22:15;;;;;;;11.85;4.32;;;;;;;39.07;24.91;101468.22;5022821;28;20095;-68
2022/08/23 10:24:47;;;;;;;11.38;3.38;;;;;;;39.03;24.78;101469.47;5022951;28;20038;-68
2022/08/23 10:30:11;;;;;;;12.25;4.40;;;;;;;38.90;25.32;101469.91;4991478;28;20492;-68
2022/08/23 10:32:52;;;;;;;10.60;3.75;;;;;;;39.46;24.15;101475.19;5023568;28;20021;-68
2022/08/23 10:35:29;;;;;;;13.18;4.30;;;;;;;39.13;23.26;101472.31;5023655;28;20476;-68
2022/08/23 10:37:57;;;;;;;13.55;3.65;;;;;;;39.17;23.24;101464.50;5022692;28;20267;-68
2022/08/23 10:40:29;;;;;;;9.65;3.45;;;;;;;39.65;22.94;101472.69;5023123;28;20037;-68
2022/08/23 10:43:13;;;;;;;16.80;5.40;;;;;;;40.10;23.48;101474.97;5022080;28;20028;-68
2022/08/23 10:45:40;;;;;;;16.45;5.90;;;;;;;39.24;22.55;101460.03;5022594;28;20032;-68
2022/08/23 10:48:19;;;;;;;;;;;;;;;40.34;24.41;101468.22;5022956;28;20527;-69
2022/08/23 10:50:56;;;;;;;17.27;6.75;;;;;;;39.63;23.66;101451.31;5022911;28;19948;-65
2022/08/23 10:53:45;;;;;;;15.85;5.85;;;;;;;39.95;24.79;101456.94;5022972;28;20112;-66
2022/08/23 10:56:16;;;;;;;14.02;5.38;;;;;;;40.34;23.38;101447.25;5022453;28;20215;-65
2022/08/23 10:59:20;;;;;;;15.60;6.78;;;;;;;40.80;24.17;101452.69;5028717;28;20122;-65
2022/08/23 11:02:04;;;;;;;19.88;7.28;;;;;;;40.17;22.42;101457.66;5051515;28;20064;-68
2022/08/23 11:04:47;;;;;;;16.38;6.95;;;;;;;39.54;23.98;101448.88;5062522;28;20111;-68
2022/08/23 11:07:16;;;;;;;21.90;7.30;;;;;;;39.41;24.21;101447.66;5062259;28;20021;-67
2022/08/23 11:09:47;;;;;;;22.83;8.10;;;;;;;39.38;23.54;101445.63;5062412;28;20021;-67
2022/08/23 11:12:20;;;;;;;19.23;6.65;;;;;;;39.81;24.46;101451.25;5062342;28;20028;-67
2022/08/23 11:15:01;;;;;;;21.70;7.05;;;;;;;39.94;23.94;101443.78;5049969;28;20045;-67
2022/08/23 11:17:39;;;;;;;17.25;6.28;;;;;;;38.87;23.99;101432.53;5022345;28;20036;-67
2022/08/23 11:20:08;;;;;;;16.92;5.90;;;;;;;37.69;24.98;101442.91;5021462;28;20029;-67
2022/08/23 11:22:56;;;;;;;18.58;6.38;;;;;;;36.78;27.70;101437.78;5022947;28;20388;-67
2022/08/23 11:25:21;;;;;;;16.52;6.78;;;;;;;35.09;28.41;101436.97;5021861;28;20553;-68
2022/08/23 11:27:47;;;;;;;16.60;5.77;;;;;;;34.45;30.37;101437.88;5023105;28;20026;-67
2022/08/23 11:30:30;;;;;;;17.13;5.53;;;;;;;34.12;30.66;101444.16;5020996;28;20030;-67
2022/08/23 11:33:00;;;;;;;15.40;4.90;;;;;;;32.84;30.58;101439.19;5022140;28;20053;-67
2022/08/23 11:35:44;;;;;;;12.50;4.22;;;;;;;32.39;32.18;101446.16;5038260;28;20043;-67